Time;durP1;ratioP1;P1;durP2;ratioP2;P2;SDS_P1;SDS_P2;PMS_P1;PMS_P2;Temp;Humidity;BMP_temperature;BMP_pressure;BME280_temperature;BME280_humidity;BME280_pressure;Samples;Min_cycle;Max_cycle;Signal;HPM_P1;HPM_P2
2023/12/19 00:01:32;;;;;;;2.58;1.90;;;22.10;99.90;;;;;;4996156;28;20097;-53
2023/12/19 00:03:58;;;;;;;2.58;1.58;;;22.10;99.90;;;;;;4994933;28;20113;-53
2023/12/19 00:06:24;;;;;;;3.95;1.58;;;22.10;99.90;;;;;;4996058;28;20348;-53
2023/12/19 00:08:50;;;;;;;3.08;1.67;;;22.10;99.90;;;;;;4996220;28;20058;-53
2023/12/19 00:11:16;;;;;;;3.17;1.75;;;22.10;99.90;;;;;;4996012;28;20041;-53
2023/12/19 00:13:42;;;;;;;2.55;1.90;;;22.10;99.90;;;;;;4996274;28;20356;-53
2023/12/19 00:16:08;;;;;;;3.78;1.45;;;22.10;99.90;;;;;;4996115;28;20121;-53
2023/12/19 00:18:33;;;;;;;3.75;1.50;;;22.00;99.90;;;;;;4995915;28;20030;-53
2023/12/19 00:21:00;;;;;;;3.88;1.83;;;22.00;99.90;;;;;;4995918;28;20018;-52
2023/12/19 00:23:30;;;;;;;2.70;1.50;;;22.00;99.90;;;;;;4995741;28;20140;-53
2023/12/19 00:25:59;;;;;;;3.33;1.95;;;22.00;99.90;;;;;;4995821;28;20031;-53
2023/12/19 00:28:27;;;;;;;5.07;1.80;;;22.00;99.90;;;;;;4995848;28;20022;-53
2023/12/19 00:30:54;;;;;;;4.28;2.00;;;22.00;99.90;;;;;;4995736;28;20025;-53
2023/12/19 00:33:21;;;;;;;3.42;1.45;;;21.90;99.90;;;;;;4995809;28;20101;-53
2023/12/19 00:35:47;;;;;;;2.22;1.58;;;21.90;99.90;;;;;;4995648;28;20050;-51
2023/12/19 00:38:13;;;;;;;5.68;1.65;;;21.90;99.90;;;;;;4995737;28;20105;-53
2023/12/19 00:40:39;;;;;;;2.58;1.75;;;21.90;99.90;;;;;;4995871;28;20050;-53
2023/12/19 00:43:04;;;;;;;3.50;1.70;;;21.90;99.90;;;;;;4994161;28;20559;-53
2023/12/19 00:45:30;;;;;;;3.63;1.40;;;21.90;99.90;;;;;;4995364;28;20041;-52
2023/12/19 00:47:56;;;;;;;4.45;1.67;;;21.90;99.90;;;;;;4995346;28;20057;-53
2023/12/19 00:50:22;;;;;;;2.75;1.88;;;21.90;99.90;;;;;;4995217;28;20066;-52
2023/12/19 00:52:48;;;;;;;3.13;1.80;;;21.80;99.90;;;;;;4993231;28;20030;-53
2023/12/19 00:55:14;;;;;;;2.67;1.35;;;21.80;99.90;;;;;;4995502;28;20037;-53
2023/12/19 00:57:40;;;;;;;3.85;1.98;;;21.80;99.90;;;;;;4995561;28;20105;-53
2023/12/19 01:00:06;;;;;;;3.22;1.48;;;21.80;99.90;;;;;;4995993;28;20022;-54
2023/12/19 01:02:32;;;;;;;3.60;1.40;;;21.80;99.90;;;;;;4995258;28;20572;-54
2023/12/19 01:04:58;;;;;;;2.70;1.63;;;21.70;99.90;;;;;;4995203;28;20036;-54
2023/12/19 01:07:24;;;;;;;3.20;1.40;;;21.70;99.90;;;;;;4995029;28;20109;-54
2023/12/19 01:09:50;;;;;;;2.15;1.40;;;21.70;99.90;;;;;;4995227;28;20427;-52
2023/12/19 01:12:18;;;;;;;2.17;1.65;;;21.70;99.90;;;;;;4994913;28;20113;-52
2023/12/19 01:14:44;;;;;;;3.05;1.58;;;21.70;99.90;;;;;;4995066;28;20048;-52
2023/12/19 01:17:10;;;;;;;4.07;1.60;;;21.70;99.90;;;;;;4994869;28;20034;-52
2023/12/19 01:19:37;;;;;;;3.30;1.70;;;21.70;99.90;;;;;;4994720;28;20387;-52
2023/12/19 01:22:03;;;;;;;2.60;1.70;;;21.70;99.90;;;;;;4994677;28;20026;-52
2023/12/19 01:24:29;;;;;;;4.47;1.70;;;21.60;99.90;;;;;;4994602;28;20038;-53
2023/12/19 01:26:55;;;;;;;3.47;1.83;;;21.60;99.90;;;;;;4994816;28;20073;-53
2023/12/19 01:29:21;;;;;;;2.53;1.52;;;21.60;99.90;;;;;;4994599;28;20022;-53
2023/12/19 01:31:46;;;;;;;2.22;1.45;;;21.60;99.90;;;;;;4993327;28;20018;-54
2023/12/19 01:34:13;;;;;;;4.60;1.80;;;21.60;99.90;;;;;;4993533;28;20409;-54
2023/12/19 01:36:39;;;;;;;4.60;2.00;;;21.60;99.90;;;;;;4994552;28;20105;-53
2023/12/19 01:39:05;;;;;;;3.85;1.80;;;21.60;99.90;;;;;;4994468;28;20025;-54
2023/12/19 01:41:31;;;;;;;3.03;1.75;;;21.60;99.90;;;;;;4994336;28;20026;-52
2023/12/19 01:43:58;;;;;;;3.83;1.88;;;21.50;99.90;;;;;;4992941;28;20030;-52
2023/12/19 01:46:24;;;;;;;1.88;1.25;;;21.50;99.90;;;;;;4994386;28;20027;-52
2023/12/19 01:48:50;;;;;;;2.35;1.30;;;21.50;99.90;;;;;;4994168;28;20113;-52
2023/12/19 01:51:17;;;;;;;3.55;1.55;;;21.50;99.90;;;;;;4994327;28;20037;-53
2023/12/19 01:53:44;;;;;;;2.75;1.55;;;21.50;99.90;;;;;;4994300;28;20030;-53
2023/12/19 01:56:12;;;;;;;5.07;1.92;;;21.50;99.90;;;;;;4994144;28;20034;-53
2023/12/19 01:58:38;;;;;;;2.83;1.55;;;21.50;99.90;;;;;;4994007;28;20430;-53
2023/12/19 02:01:06;;;;;;;3.17;1.95;;;21.50;99.90;;;;;;4994354;28;20038;-53
2023/12/19 02:03:32;;;;;;;4.50;1.65;;;21.40;99.90;;;;;;4992399;28;20030;-53
2023/12/19 02:05:59;;;;;;;3.30;1.70;;;21.40;99.90;;;;;;4993751;28;20149;-53
2023/12/19 02:08:27;;;;;;;2.35;1.27;;;21.40;99.90;;;;;;4993714;28;20097;-53
2023/12/19 02:10:53;;;;;;;2.20;1.60;;;21.40;99.90;;;;;;4993826;28;20018;-55
2023/12/19 02:13:21;;;;;;;3.40;1.70;;;21.40;99.90;;;;;;4993712;28;20145;-53
2023/12/19 02:15:48;;;;;;;;;;;21.40;99.90;;;;;;4994422;28;20050;-53
2023/12/19 02:18:18;;;;;;;2.58;1.45;;;21.40;99.90;;;;;;4993751;28;19920;-54
2023/12/19 02:20:44;;;;;;;2.28;1.50;;;21.40;99.90;;;;;;4993805;28;20471;-54
2023/12/19 02:23:14;;;;;;;3.35;1.48;;;21.40;99.90;;;;;;4993664;28;20042;-54
2023/12/19 02:25:41;;;;;;;3.78;1.73;;;21.30;99.90;;;;;;4993640;28;20045;-54
2023/12/19 02:28:07;;;;;;;2.15;1.50;;;21.30;99.90;;;;;;4993502;28;20022;-54
2023/12/19 02:30:37;;;;;;;2.25;1.20;;;21.30;99.90;;;;;;4993385;28;20050;-53
2023/12/19 02:33:03;;;;;;;4.45;1.60;;;21.30;99.90;;;;;;4992307;28;20030;-54
2023/12/19 02:35:30;;;;;;;3.03;1.73;;;21.30;99.90;;;;;;4993297;28;20030;-54
2023/12/19 02:37:56;;;;;;;3.10;1.65;;;21.30;99.90;;;;;;4993346;28;20034;-55
2023/12/19 02:40:23;;;;;;;3.40;1.77;;;21.20;99.90;;;;;;4993290;28;20077;-54
2023/12/19 02:42:49;;;;;;;2.83;1.50;;;21.20;99.90;;;;;;4993202;28;20054;-54
2023/12/19 02:45:15;;;;;;;2.28;1.70;;;21.20;99.90;;;;;;4993076;28;20475;-54
2023/12/19 02:47:41;;;;;;;3.17;1.60;;;21.20;99.90;;;;;;4993159;28;20467;-54
2023/12/19 02:50:07;;;;;;;2.42;1.40;;;21.20;99.90;;;;;;4993212;28;20085;-54
2023/12/19 02:52:33;;;;;;;3.13;1.50;;;21.20;99.90;;;;;;4993270;28;20014;-54
2023/12/19 02:54:59;;;;;;;2.60;1.60;;;21.20;99.90;;;;;;4993101;28;20034;-54
2023/12/19 02:57:25;;;;;;;2.92;1.45;;;21.10;99.90;;;;;;4993031;28;20030;-54
2023/12/19 02:59:50;;;;;;;3.22;1.52;;;21.10;99.90;;;;;;4992917;28;20496;-54
2023/12/19 03:02:16;;;;;;;2.75;1.42;;;21.10;99.90;;;;;;4993333;28;20077;-54
2023/12/19 03:04:42;;;;;;;2.55;1.58;;;21.10;99.90;;;;;;4992944;28;20061;-52
2023/12/19 03:07:09;;;;;;;3.90;1.70;;;21.10;99.90;;;;;;4992931;28;20466;-54
2023/12/19 03:09:35;;;;;;;3.05;1.42;;;21.10;99.90;;;;;;4993077;28;20160;-54
2023/12/19 03:12:03;;;;;;;2.88;1.70;;;21.00;99.90;;;;;;4992802;28;20109;-54
2023/12/19 03:14:33;;;;;;;3.03;1.92;;;21.00;99.90;;;;;;4991501;28;20041;-55
2023/12/19 03:17:03;;;;;;;2.85;1.60;;;21.00;99.90;;;;;;4992391;28;20028;-54
2023/12/19 03:19:30;;;;;;;2.85;1.52;;;21.00;99.90;;;;;;4992719;28;20498;-54
2023/12/19 03:21:55;;;;;;;3.83;1.83;;;21.00;99.90;;;;;;4992751;28;20096;-54
2023/12/19 03:24:22;;;;;;;2.08;1.52;;;21.00;99.90;;;;;;4992753;28;20481;-54
2023/12/19 03:26:48;;;;;;;3.38;1.75;;;21.00;99.90;;;;;;4992757;28;20027;-54
2023/12/19 03:29:14;;;;;;;3.35;1.88;;;21.00;99.90;;;;;;4992721;28;20018;-54
2023/12/19 03:31:42;;;;;;;2.45;1.70;;;21.00;99.90;;;;;;4992577;28;20074;-54
2023/12/19 03:34:08;;;;;;;3.35;1.88;;;20.90;99.90;;;;;;4992881;28;20018;-54
2023/12/19 03:36:34;;;;;;;2.83;1.77;;;20.90;99.90;;;;;;4992576;28;20038;-53
2023/12/19 03:39:00;;;;;;;3.55;1.60;;;20.90;99.90;;;;;;4991390;28;20034;-54
2023/12/19 03:41:25;;;;;;;4.18;2.15;;;20.90;99.90;;;;;;4991370;28;20370;-53
2023/12/19 03:43:51;;;;;;;4.22;2.22;;;20.90;99.90;;;;;;4992466;28;20052;-54
2023/12/19 03:46:17;;;;;;;3.67;1.52;;;20.90;99.90;;;;;;4992654;28;20110;-54
2023/12/19 03:48:45;;;;;;;2.88;1.77;;;20.90;99.90;;;;;;4991288;28;20475;-54
2023/12/19 03:51:12;;;;;;;2.63;1.58;;;20.90;99.90;;;;;;4992539;28;20021;-54
2023/12/19 03:53:37;;;;;;;2.67;2.10;;;20.80;99.90;;;;;;4991665;28;20058;-51
2023/12/19 03:56:04;;;;;;;2.67;1.67;;;20.90;99.90;;;;;;4991414;28;20062;-53
2023/12/19 03:58:30;;;;;;;4.72;1.85;;;20.80;99.90;;;;;;4991461;28;20088;-55
2023/12/19 04:00:56;;;;;;;2.38;1.50;;;20.80;99.90;;;;;;5000672;23;20047;-50
2023/12/19 04:03:21;;;;;;;3.38;1.70;;;20.80;99.90;;;;;;4972956;28;20023;-50
2023/12/19 04:05:47;;;;;;;2.20;1.40;;;20.80;99.90;;;;;;4973245;28;20027;-49
2023/12/19 04:08:13;;;;;;;3.85;2.00;;;20.80;99.90;;;;;;4972850;28;20030;-50
2023/12/19 04:10:39;;;;;;;2.17;1.60;;;20.80;99.90;;;;;;4973202;28;20384;-49
2023/12/19 04:13:04;;;;;;;2.92;2.20;;;20.80;99.90;;;;;;4972826;28;20027;-50
2023/12/19 04:15:30;;;;;;;1.88;1.50;;;20.80;99.90;;;;;;4971819;28;20027;-50
2023/12/19 04:17:56;;;;;;;3.38;1.95;;;20.70;99.90;;;;;;4972907;28;20487;-50
2023/12/19 04:20:22;;;;;;;3.83;1.90;;;20.70;99.90;;;;;;4972892;28;20078;-50
2023/12/19 04:22:48;;;;;;;5.15;1.73;;;20.70;99.90;;;;;;4972814;28;20492;-50
2023/12/19 04:25:13;;;;;;;3.67;2.05;;;20.70;99.90;;;;;;4972693;28;20047;-50
2023/12/19 04:27:39;;;;;;;3.33;1.88;;;20.70;99.90;;;;;;4973482;28;20023;-50
2023/12/19 04:30:06;;;;;;;3.25;2.10;;;20.70;99.90;;;;;;4976157;28;20048;-49
2023/12/19 04:32:32;;;;;;;2.85;2.00;;;20.70;99.90;;;;;;4974883;28;20050;-49
2023/12/19 04:34:58;;;;;;;4.82;2.17;;;20.60;99.90;;;;;;4976253;28;20420;-49
2023/12/19 04:37:23;;;;;;;4.28;1.95;;;20.60;99.90;;;;;;4976160;28;20027;-49
2023/12/19 04:39:49;;;;;;;2.30;1.60;;;20.60;99.90;;;;;;4975976;28;20050;-49
2023/12/19 04:42:18;;;;;;;2.38;1.83;;;20.60;99.90;;;;;;4976128;28;20375;-50
2023/12/19 04:44:47;;;;;;;4.47;1.65;;;20.60;99.90;;;;;;4976010;28;20474;-49
2023/12/19 04:47:13;;;;;;;3.20;2.10;;;20.60;99.90;;;;;;4975989;28;20019;-50
2023/12/19 04:49:39;;;;;;;3.60;2.00;;;20.60;99.90;;;;;;4976064;28;20390;-50
2023/12/19 04:52:05;;;;;;;2.92;1.80;;;20.60;99.90;;;;;;4975732;28;20483;-49
2023/12/19 04:54:32;;;;;;;2.33;1.50;;;20.60;99.90;;;;;;4975799;28;20027;-49
2023/12/19 04:56:58;;;;;;;2.60;1.83;;;20.50;99.90;;;;;;4975877;28;20375;-50
2023/12/19 04:59:24;;;;;;;2.35;1.50;;;20.50;99.90;;;;;;4975848;28;20034;-50
2023/12/19 05:01:50;;;;;;;3.25;1.65;;;20.50;99.90;;;;;;4975834;28;20054;-52
2023/12/19 05:04:16;;;;;;;2.60;1.52;;;20.50;99.90;;;;;;4975550;28;20038;-49
2023/12/19 05:06:42;;;;;;;3.25;1.90;;;20.50;99.90;;;;;;4975785;28;20029;-49
2023/12/19 05:09:08;;;;;;;2.00;1.50;;;20.50;99.90;;;;;;4975553;28;20031;-50
2023/12/19 05:11:35;;;;;;;2.65;1.63;;;20.50;99.90;;;;;;4975639;28;20038;-49
2023/12/19 05:14:01;;;;;;;3.10;2.25;;;20.50;99.90;;;;;;4975466;28;20026;-49
2023/12/19 05:16:27;;;;;;;2.88;1.90;;;20.50;99.90;;;;;;4975532;28;20352;-50
2023/12/19 05:18:52;;;;;;;2.30;1.80;;;20.40;99.90;;;;;;4975447;28;20034;-49
2023/12/19 05:21:21;;;;;;;2.65;1.70;;;20.40;99.90;;;;;;4975275;28;20033;-49
2023/12/19 05:23:47;;;;;;;3.35;1.80;;;20.50;99.90;;;;;;4973915;28;20035;-49
2023/12/19 05:26:13;;;;;;;2.78;1.65;;;20.40;99.90;;;;;;4975447;28;20029;-49
2023/12/19 05:28:39;;;;;;;2.97;1.80;;;20.40;99.90;;;;;;4975180;28;20102;-49
2023/12/19 05:31:06;;;;;;;3.20;2.20;;;20.40;99.90;;;;;;4975135;28;20086;-50
2023/12/19 05:33:33;;;;;;;4.35;1.77;;;20.40;99.90;;;;;;4975062;28;20081;-50
2023/12/19 05:35:59;;;;;;;2.40;1.60;;;20.40;99.90;;;;;;4973878;28;20034;-50
2023/12/19 05:38:24;;;;;;;3.97;1.90;;;20.40;99.90;;;;;;4974448;28;20257;-50
2023/12/19 05:40:53;;;;;;;2.25;1.88;;;20.40;99.90;;;;;;4975233;28;20042;-50
2023/12/19 05:43:19;;;;;;;2.42;1.60;;;20.40;99.90;;;;;;4974959;28;20019;-50
2023/12/19 05:45:44;;;;;;;2.80;1.80;;;20.40;99.90;;;;;;4975161;28;20383;-50
2023/12/19 05:48:10;;;;;;;2.50;1.70;;;20.40;99.90;;;;;;4974864;28;20023;-50
2023/12/19 05:50:36;;;;;;;2.47;1.90;;;20.40;99.90;;;;;;4974802;28;20031;-49
2023/12/19 05:53:02;;;;;;;3.72;1.65;;;20.40;99.90;;;;;;4974961;28;20023;-49
2023/12/19 05:55:27;;;;;;;6.93;2.10;;;20.30;99.90;;;;;;4974721;28;20015;-50
2023/12/19 05:57:53;;;;;;;4.07;1.80;;;20.40;99.90;;;;;;4974798;28;20042;-49
2023/12/19 06:00:19;;;;;;;3.47;2.03;;;20.30;99.90;;;;;;4974737;28;20488;-49
2023/12/19 06:02:45;;;;;;;3.53;1.55;;;20.30;99.90;;;;;;4989384;28;20051;-50
2023/12/19 06:05:11;;;;;;;2.45;1.77;;;20.30;99.90;;;;;;4974406;28;20554;-50
2023/12/19 06:07:37;;;;;;;5.88;1.90;;;20.30;99.90;;;;;;4974422;28;20030;-49
2023/12/19 06:10:11;;;;;;;5.15;2.10;;;20.30;99.90;;;;;;4973177;28;20496;-49
2023/12/19 06:12:37;;;;;;;2.85;1.48;;;20.30;99.90;;;;;;4974360;28;20023;-49
2023/12/19 06:15:08;;;;;;;2.50;1.60;;;20.30;99.90;;;;;;4989269;28;20105;-50
2023/12/19 06:17:35;;;;;;;3.08;1.85;;;20.30;99.90;;;;;;4974238;28;20027;-50
2023/12/19 06:20:01;;;;;;;3.10;1.80;;;20.30;99.90;;;;;;4974357;28;20084;-49
2023/12/19 06:22:27;;;;;;;3.35;1.88;;;20.30;99.90;;;;;;4974141;28;20023;-49
2023/12/19 06:24:53;;;;;;;2.42;1.95;;;20.20;99.90;;;;;;4973934;28;20042;-50
2023/12/19 06:27:19;;;;;;;3.72;1.58;;;20.30;99.90;;;;;;4974306;28;20491;-49
2023/12/19 06:29:46;;;;;;;3.30;1.55;;;20.20;99.90;;;;;;4974323;28;20113;-49
2023/12/19 06:32:11;;;;;;;2.10;1.58;;;20.20;99.90;;;;;;4973900;28;20027;-49
2023/12/19 06:34:37;;;;;;;3.92;1.80;;;20.20;99.90;;;;;;4973960;28;20386;-49
2023/12/19 06:37:03;;;;;;;3.25;1.70;;;20.20;99.90;;;;;;4974091;28;20030;-50
2023/12/19 06:39:29;;;;;;;2.42;1.42;;;20.20;99.90;;;;;;4973955;28;20026;-49
2023/12/19 06:41:55;;;;;;;2.53;1.60;;;20.20;99.90;;;;;;4973934;28;20050;-49
2023/12/19 06:44:21;;;;;;;1.98;1.52;;;20.20;99.90;;;;;;4972568;28;20035;-49
2023/12/19 06:46:49;;;;;;;3.08;1.98;;;20.20;99.90;;;;;;4973887;28;20045;-49
2023/12/19 06:49:18;;;;;;;3.17;1.83;;;20.20;99.90;;;;;;4974104;28;20031;-49
2023/12/19 06:51:44;;;;;;;3.13;1.80;;;20.10;99.90;;;;;;4972945;28;20526;-49
2023/12/19 06:54:11;;;;;;;3.50;2.00;;;20.10;99.90;;;;;;4973618;28;20027;-49
2023/12/19 06:56:37;;;;;;;3.20;1.95;;;20.10;99.90;;;;;;4973625;28;20035;-49
2023/12/19 06:59:04;;;;;;;2.58;1.63;;;20.10;99.90;;;;;;4972303;28;20023;-50
2023/12/19 07:01:30;;;;;;;6.50;3.22;;;20.10;99.90;;;;;;4973224;28;20134;-50
2023/12/19 07:03:56;;;;;;;5.40;2.05;;;20.10;99.90;;;;;;4973362;28;20491;-50
2023/12/19 07:06:22;;;;;;;2.47;1.90;;;20.10;99.90;;;;;;4973403;28;20031;-50
2023/12/19 07:08:47;;;;;;;3.17;1.90;;;20.10;99.90;;;;;;4973728;28;20032;-50
2023/12/19 07:11:14;;;;;;;4.32;1.65;;;20.10;99.90;;;;;;4973434;28;20411;-50
2023/12/19 07:13:40;;;;;;;7.00;1.90;;;20.10;99.90;;;;;;4973422;28;20170;-50
2023/12/19 07:16:06;;;;;;;4.63;2.05;;;20.10;99.90;;;;;;4972272;28;20035;-50
2023/12/19 07:18:33;;;;;;;3.55;2.10;;;20.10;99.90;;;;;;4973291;28;20510;-50
2023/12/19 07:20:59;;;;;;;5.18;2.08;;;20.10;99.90;;;;;;4973262;28;20038;-51
2023/12/19 07:23:25;;;;;;;4.88;2.28;;;20.10;99.90;;;;;;4973192;28;20482;-50
2023/12/19 07:25:51;;;;;;;4.30;2.05;;;20.10;99.90;;;;;;4973317;28;20415;-50
2023/12/19 07:28:17;;;;;;;5.00;2.17;;;20.00;99.90;;;;;;4973523;28;20046;-50
2023/12/19 07:30:43;;;;;;;4.70;2.65;;;20.00;99.90;;;;;;4973209;28;20082;-50
2023/12/19 07:33:09;;;;;;;5.00;2.30;;;20.00;99.90;;;;;;4973104;28;20019;-50
2023/12/19 07:35:34;;;;;;;5.60;2.40;;;20.00;99.90;;;;;;4973182;28;20452;-50
2023/12/19 07:38:00;;;;;;;5.55;2.85;;;20.00;99.90;;;;;;4973133;28;20117;-49
2023/12/19 07:40:26;;;;;;;5.72;1.73;;;20.00;99.90;;;;;;4973040;28;20103;-49
2023/12/19 07:42:52;;;;;;;4.00;2.22;;;20.00;99.90;;;;;;4973196;28;20547;-49
2023/12/19 07:45:18;;;;;;;5.63;2.85;;;20.00;99.90;;;;;;4973156;28;20041;-49
2023/12/19 07:47:44;;;;;;;7.32;2.63;;;20.00;99.90;;;;;;4973067;28;20035;-49
2023/12/19 07:50:10;;;;;;;7.20;2.40;;;20.00;99.90;;;;;;4973161;28;20027;-49
2023/12/19 07:52:36;;;;;;;4.78;2.30;;;20.00;99.90;;;;;;4973025;28;20027;-50
2023/12/19 07:55:09;;;;;;;3.50;2.33;;;20.00;99.90;;;;;;4972937;28;20022;-50
2023/12/19 07:57:38;;;;;;;4.60;1.70;;;20.10;99.90;;;;;;4972869;28;20027;-49
2023/12/19 08:00:05;;;;;;;3.08;1.88;;;20.10;99.90;;;;;;4972944;28;20063;-49
2023/12/19 08:02:32;;;;;;;3.85;2.17;;;20.10;99.90;;;;;;4974486;28;20046;-50
2023/12/19 08:04:58;;;;;;;3.03;1.92;;;20.10;99.90;;;;;;4976714;28;20038;-49
2023/12/19 08:07:24;;;;;;;3.20;2.20;;;20.10;99.90;;;;;;4976544;28;20038;-49
2023/12/19 08:09:50;;;;;;;4.68;2.80;;;20.20;99.90;;;;;;4977012;28;20027;-49
2023/12/19 08:12:15;;;;;;;5.25;2.50;;;20.20;99.90;;;;;;4976474;28;20085;-49
2023/12/19 08:14:41;;;;;;;4.55;2.40;;;20.20;99.90;;;;;;4976420;28;20031;-49
2023/12/19 08:17:07;;;;;;;5.63;2.20;;;20.20;99.90;;;;;;4976353;28;20082;-49
2023/12/19 08:19:33;;;;;;;4.88;2.88;;;20.30;99.90;;;;;;4976486;28;20022;-49
2023/12/19 08:21:58;;;;;;;5.65;2.00;;;20.40;99.90;;;;;;4976348;28;20031;-50
2023/12/19 08:24:25;;;;;;;5.10;2.80;;;20.30;99.90;;;;;;4976267;28;20035;-49
2023/12/19 08:26:52;;;;;;;4.47;2.70;;;20.40;99.90;;;;;;4976464;28;20019;-50
2023/12/19 08:29:18;;;;;;;7.37;2.77;;;20.40;99.90;;;;;;4991060;28;20479;-50
2023/12/19 08:31:48;;;;;;;4.88;2.47;;;20.40;99.90;;;;;;4976249;28;20838;-50
2023/12/19 08:34:18;;;;;;;5.90;2.42;;;20.50;99.90;;;;;;4976305;28;20467;-49
2023/12/19 08:36:44;;;;;;;3.63;2.25;;;20.50;99.90;;;;;;4976337;28;20438;-49
2023/12/19 08:39:10;;;;;;;3.92;1.95;;;20.50;99.90;;;;;;4974782;28;20054;-49
2023/12/19 08:41:37;;;;;;;4.95;2.17;;;20.60;99.90;;;;;;4976056;28;20031;-49
2023/12/19 08:44:03;;;;;;;4.32;2.38;;;20.60;99.90;;;;;;4975801;28;20102;-49
2023/12/19 08:46:29;;;;;;;4.55;2.30;;;20.60;99.90;;;;;;4974718;28;20030;-49
2023/12/19 08:48:55;;;;;;;6.13;2.83;;;20.60;99.90;;;;;;4976277;28;20395;-49
2023/12/19 08:51:21;;;;;;;5.60;2.40;;;20.70;99.90;;;;;;4975914;28;20027;-50
2023/12/19 08:53:46;;;;;;;7.43;2.92;;;20.70;99.90;;;;;;4975603;28;20081;-49
2023/12/19 08:56:12;;;;;;;6.25;2.13;;;20.70;99.90;;;;;;4975709;28;20030;-49
2023/12/19 08:58:38;;;;;;;5.15;3.05;;;20.80;99.90;;;;;;4975643;28;20384;-48
2023/12/19 09:01:04;;;;;;;3.33;2.25;;;20.80;99.90;;;;;;4975447;28;20115;-49
2023/12/19 09:03:30;;;;;;;4.93;2.70;;;20.80;99.90;;;;;;4975677;28;20054;-49
2023/12/19 09:05:55;;;;;;;5.03;2.67;;;20.90;99.90;;;;;;4975794;28;20045;-49
2023/12/19 09:08:23;;;;;;;6.78;2.65;;;20.90;99.90;;;;;;4974320;28;20030;-49
2023/12/19 09:10:49;;;;;;;6.47;2.70;;;20.90;99.90;;;;;;4975625;28;20502;-49
2023/12/19 09:13:16;;;;;;;4.38;2.60;;;21.00;99.90;;;;;;4974978;28;20035;-49
2023/12/19 09:15:42;;;;;;;5.93;2.60;;;21.00;99.90;;;;;;4975456;28;20058;-49
2023/12/19 09:18:08;;;;;;;5.88;2.78;;;21.00;99.90;;;;;;4975363;28;20065;-49
2023/12/19 09:20:33;;;;;;;5.43;3.33;;;21.10;99.90;;;;;;4975374;28;20019;-49
2023/12/19 09:22:59;;;;;;;4.93;3.13;;;21.10;99.90;;;;;;4990038;28;20027;-48
2023/12/19 09:25:26;;;;;;;4.90;3.00;;;21.10;99.90;;;;;;4975510;28;20033;-49
2023/12/19 09:27:52;;;;;;;4.18;2.65;;;21.20;99.90;;;;;;4975240;28;20019;-49
2023/12/19 09:30:18;;;;;;;4.15;2.72;;;21.20;99.90;;;;;;4975044;28;20371;-49
2023/12/19 09:32:43;;;;;;;7.70;3.13;;;21.20;99.90;;;;;;4975240;28;20026;-49
2023/12/19 09:35:12;;;;;;;5.43;3.28;;;21.30;99.90;;;;;;4975085;28;20084;-49
2023/12/19 09:37:38;;;;;;;4.75;3.65;;;21.30;99.90;;;;;;4975051;28;20023;-49
2023/12/19 09:40:11;;;;;;;4.68;3.05;;;21.30;99.90;;;;;;4975203;28;20435;-50
2023/12/19 09:42:39;;;;;;;3.97;2.75;;;21.40;99.90;;;;;;4974836;28;20081;-49
2023/12/19 09:45:06;;;;;;;6.88;3.13;;;21.40;99.90;;;;;;4974726;28;20038;-49
2023/12/19 09:47:38;;;;;;;7.50;4.43;;;21.40;99.90;;;;;;4974734;28;20030;-49
2023/12/19 09:50:08;;;;;;;4.50;3.30;;;21.50;99.90;;;;;;4974755;28;20031;-49
2023/12/19 09:52:35;;;;;;;7.05;3.22;;;21.50;99.90;;;;;;4974763;28;20573;-49
2023/12/19 09:55:04;;;;;;;4.22;3.00;;;21.50;99.90;;;;;;4974785;28;20030;-49
2023/12/19 09:57:33;;;;;;;7.00;4.25;;;21.60;99.90;;;;;;4974566;28;20034;-49
2023/12/19 10:00:07;;;;;;;5.93;3.40;;;21.60;99.90;;;;;;4974721;28;20368;-49
2023/12/19 10:02:33;;;;;;;4.78;3.42;;;21.60;99.90;;;;;;4974266;28;20058;-49
2023/12/19 10:04:58;;;;;;;4.93;2.97;;;21.70;99.90;;;;;;4974463;28;20057;-50
2023/12/19 10:07:24;;;;;;;5.97;3.58;;;21.80;99.90;;;;;;4974339;28;20023;-49
2023/12/19 10:09:55;;;;;;;9.80;3.63;;;21.80;99.90;;;;;;4974223;28;20038;-49
2023/12/19 10:12:21;;;;;;;5.90;3.30;;;21.80;99.90;;;;;;4974324;28;20435;-49
2023/12/19 10:14:47;;;;;;;5.88;3.20;;;21.90;99.90;;;;;;4974232;28;20019;-49
2023/12/19 10:17:16;;;;;;;5.05;3.70;;;21.90;99.90;;;;;;4974137;28;20023;-50
2023/12/19 10:19:41;;;;;;;4.97;2.97;;;21.90;99.90;;;;;;4974158;28;20438;-49
2023/12/19 10:22:16;;;;;;;4.25;2.80;;;22.00;99.90;;;;;;4974250;28;20509;-49
2023/12/19 10:24:42;;;;;;;6.47;2.65;;;22.10;99.90;;;;;;4987718;28;20069;-49
2023/12/19 10:27:08;;;;;;;4.88;3.08;;;22.10;99.90;;;;;;4974098;28;20054;-49
2023/12/19 10:29:38;;;;;;;5.15;3.42;;;22.20;99.90;;;;;;4989126;28;20077;-50
2023/12/19 10:32:18;;;;;;;4.65;3.13;;;22.20;99.90;;;;;;4972661;28;20074;-50
2023/12/19 10:34:44;;;;;;;5.88;3.60;;;22.30;99.90;;;;;;4973988;28;20043;-49
2023/12/19 10:37:19;;;;;;;6.53;3.00;;;22.30;99.90;;;;;;4973954;28;20023;-49
2023/12/19 10:39:45;;;;;;;8.23;3.53;;;22.40;99.90;;;;;;4973527;28;20073;-49
2023/12/19 10:42:11;;;;;;;6.15;3.92;;;22.40;99.90;;;;;;4973566;28;20019;-49
2023/12/19 10:44:41;;;;;;;6.97;3.75;;;22.50;99.90;;;;;;4973646;28;20038;-49
2023/12/19 10:47:08;;;;;;;4.30;3.15;;;22.50;99.90;;;;;;4973809;28;20023;-49
2023/12/19 10:49:38;;;;;;;4.70;2.97;;;22.50;99.90;;;;;;4973607;28;20102;-49
2023/12/19 10:52:06;;;;;;;6.00;3.08;;;22.60;99.90;;;;;;4973604;28;20051;-50
2023/12/19 10:54:37;;;;;;;4.35;3.00;;;22.60;99.90;;;;;;4973637;28;20073;-49
2023/12/19 10:57:16;;;;;;;4.88;3.65;;;22.70;99.90;;;;;;4973553;28;20023;-49
2023/12/19 10:59:50;;;;;;;5.28;3.28;;;22.70;99.90;;;;;;4973686;28;20023;-50
2023/12/19 11:02:25;;;;;;;5.15;3.20;;;22.70;99.90;;;;;;4973354;28;20509;-49
2023/12/19 11:05:04;;;;;;;6.00;3.17;;;22.80;99.90;;;;;;4973344;28;20038;-49
2023/12/19 11:07:33;;;;;;;5.45;2.95;;;22.80;99.90;;;;;;4973520;28;20030;-49
2023/12/19 11:10:06;;;;;;;5.63;2.92;;;22.80;99.90;;;;;;4973683;28;20053;-49
2023/12/19 11:12:33;;;;;;;5.57;3.58;;;22.90;99.90;;;;;;4973614;28;20046;-49
2023/12/19 11:14:59;;;;;;;6.00;3.03;;;22.90;99.90;;;;;;4973297;28;20027;-49
2023/12/19 11:17:32;;;;;;;5.20;3.33;;;22.90;99.90;;;;;;4973206;28;20035;-50
2023/12/19 11:20:13;;;;;;;6.93;4.05;;;23.00;99.90;;;;;;4973257;28;20034;-49
2023/12/19 11:23:07;;;;;;;4.07;2.70;;;23.00;99.90;;;;;;4973083;28;20441;-50
2023/12/19 11:25:45;;;;;;;4.82;3.20;;;23.10;99.90;;;;;;4972681;28;20122;-49
2023/12/19 11:28:11;;;;;;;3.97;2.78;;;23.10;99.90;;;;;;4973333;28;20023;-50
2023/12/19 11:30:40;;;;;;;4.13;2.50;;;23.10;99.90;;;;;;4973235;28;20030;-49
2023/12/19 11:33:14;;;;;;;4.53;2.65;;;23.20;99.90;;;;;;4973142;28;20475;-50
2023/12/19 11:35:41;;;;;;;6.70;3.25;;;23.20;99.90;;;;;;4973282;28;20034;-49
2023/12/19 11:38:29;;;;;;;4.85;3.17;;;23.20;99.90;;;;;;4976050;28;20483;-49
2023/12/19 11:40:57;;;;;;;5.97;2.97;;;23.20;99.90;;;;;;4977142;28;20117;-50
2023/12/19 11:43:29;;;;;;;5.40;2.78;;;23.30;99.90;;;;;;4977048;28;20488;-49
2023/12/19 11:46:04;;;;;;;5.43;2.90;;;23.30;99.90;;;;;;4976946;28;20122;-49
2023/12/19 11:48:40;;;;;;;5.13;3.05;;;23.40;99.90;;;;;;4977090;28;20019;-49
2023/12/19 11:51:12;;;;;;;5.28;2.70;;;23.40;99.90;;;;;;4976851;28;20047;-49
2023/12/19 11:53:39;;;;;;;5.90;3.17;;;23.40;99.90;;;;;;4991751;28;20023;-49
2023/12/19 11:56:13;;;;;;;3.72;2.60;;;23.40;99.90;;;;;;4976890;28;20150;-50
2023/12/19 11:58:52;;;;;;;6.13;2.50;;;23.40;99.90;;;;;;4976895;28;20026;-49
2023/12/19 12:01:22;;;;;;;4.35;2.58;;;23.50;99.90;;;;;;4975436;28;20051;-49
2023/12/19 12:03:48;;;;;;;6.18;2.72;;;23.50;99.90;;;;;;4976738;28;20459;-49
2023/12/19 12:06:18;;;;;;;3.53;2.35;;;23.50;99.90;;;;;;4976662;28;20072;-49
2023/12/19 12:08:54;;;;;;;3.00;2.35;;;23.60;99.90;;;;;;4976497;28;20081;-49
2023/12/19 12:11:19;;;;;;;5.65;2.20;;;23.60;99.90;;;;;;4976608;28;20447;-49
2023/12/19 12:14:03;;;;;;;4.75;2.75;;;23.60;99.90;;;;;;4976424;28;20105;-49
2023/12/19 12:16:36;;;;;;;3.90;2.67;;;23.60;99.90;;;;;;4976436;28;20050;-50
2023/12/19 12:19:12;;;;;;;4.55;2.13;;;23.70;99.90;;;;;;4976672;28;20022;-49
2023/12/19 12:21:49;;;;;;;4.30;2.33;;;23.70;99.90;;;;;;4976337;28;20023;-49
2023/12/19 12:24:22;;;;;;;2.97;2.25;;;23.70;99.90;;;;;;4976091;28;20030;-49
2023/12/19 12:26:51;;;;;;;3.95;2.40;;;23.70;99.90;;;;;;4976343;28;20027;-49
2023/12/19 12:29:19;;;;;;;6.00;2.75;;;23.80;99.90;;;;;;4976365;28;20019;-50
2023/12/19 12:31:48;;;;;;;3.08;2.40;;;23.80;99.90;;;;;;4976017;28;20073;-50
2023/12/19 12:34:14;;;;;;;4.05;2.40;;;23.90;99.90;;;;;;4975965;28;20031;-49
2023/12/19 12:36:49;;;;;;;4.00;2.50;;;23.80;99.90;;;;;;4975934;28;20058;-49
2023/12/19 12:39:21;;;;;;;4.78;2.17;;;23.90;99.90;;;;;;4975866;28;20422;-49
2023/12/19 12:41:47;;;;;;;3.28;2.28;;;23.90;99.90;;;;;;4976085;28;20467;-50
2023/12/19 12:44:13;;;;;;;3.47;2.15;;;23.90;99.90;;;;;;4975798;28;20045;-49
2023/12/19 12:46:46;;;;;;;3.78;2.30;;;23.90;99.90;;;;;;4975920;28;20483;-49
2023/12/19 12:49:18;;;;;;;4.47;2.30;;;23.90;99.90;;;;;;4974605;28;20030;-50